createdAt,value
2023-04-16T00:02:20.932Z,9.69
2023-04-16T00:04:52.083Z,9.68
2023-04-16T00:07:22.829Z,9.65
2023-04-16T00:09:53.557Z,9.63
2023-04-16T00:12:24.669Z,9.61
2023-04-16T00:14:55.376Z,9.59
2023-04-16T00:17:26.271Z,9.57
2023-04-16T00:19:56.961Z,9.54
2023-04-16T00:22:27.634Z,9.43
2023-04-16T00:24:58.231Z,9.39
2023-04-16T00:27:28.876Z,9.37
2023-04-16T00:29:59.585Z,9.35
2023-04-16T00:32:30.649Z,9.34
2023-04-16T00:35:01.286Z,9.31
2023-04-16T00:37:32.027Z,9.31
2023-04-16T00:40:01.597Z,9.33
2023-04-16T00:42:32.304Z,9.34
2023-04-16T00:45:03.035Z,9.35
2023-04-16T00:47:33.893Z,9.35
2023-04-16T00:50:03.708Z,9.34
2023-04-16T00:52:34.935Z,9.34
2023-04-16T00:55:17.098Z,9.34
2023-04-16T00:57:47.775Z,9.32
2023-04-16T01:00:18.843Z,9.27
2023-04-16T01:02:49.745Z,9.26
2023-04-16T01:05:21.222Z,9.23
2023-04-16T01:07:52.163Z,9.21
2023-04-16T01:10:23.093Z,9.19
2023-04-16T01:12:53.793Z,9.18
2023-04-16T01:15:24.498Z,9.15
2023-04-16T01:17:55.166Z,9.04
2023-04-16T01:20:26.073Z,8.84
2023-04-16T01:22:55.175Z,8.67
2023-04-16T01:25:25.974Z,8.50
2023-04-16T01:27:56.674Z,8.35
2023-04-16T01:30:27.275Z,8.26
2023-04-16T01:32:58.075Z,8.24
2023-04-16T01:35:28.822Z,8.21
2023-04-16T01:37:59.482Z,8.16
2023-04-16T01:40:30.100Z,8.07
2023-04-16T01:43:00.746Z,8.03
2023-04-16T01:45:33.489Z,8.02
2023-04-16T01:48:05.141Z,7.99
2023-04-16T01:50:36.366Z,7.95
2023-04-16T01:53:07.040Z,7.94
2023-04-16T01:55:37.690Z,8.00
2023-04-16T01:58:08.365Z,8.07
2023-04-16T02:00:39.090Z,8.20
2023-04-16T02:03:09.977Z,8.28
2023-04-16T02:05:39.123Z,8.34
2023-04-16T02:08:09.738Z,8.29
2023-04-16T02:10:40.370Z,8.25
2023-04-16T02:13:11.007Z,8.21
2023-04-16T02:15:44.434Z,8.24
2023-04-16T02:18:15.338Z,8.24
2023-04-16T02:20:47.109Z,8.18
2023-04-16T02:23:18.012Z,8.11
2023-04-16T02:25:48.811Z,8.04
2023-04-16T02:28:19.508Z,8.00
2023-04-16T02:30:50.122Z,8.07
2023-04-16T02:33:20.807Z,8.07
2023-04-16T02:35:51.433Z,8.11
2023-04-16T02:38:22.201Z,8.17
2023-04-16T02:40:52.832Z,8.21
2023-04-16T02:43:23.525Z,8.22
2023-04-16T02:45:54.171Z,8.21
2023-04-16T02:48:24.850Z,8.19
2023-04-16T02:50:55.452Z,8.20
2023-04-16T02:53:26.213Z,8.14
2023-04-16T02:55:57.107Z,8.12
2023-04-16T02:58:28.339Z,8.12
2023-04-16T03:00:58.993Z,8.18
2023-04-16T03:03:29.650Z,8.20
2023-04-16T03:06:00.379Z,8.21
2023-04-16T03:08:31.086Z,8.26
2023-04-16T03:11:01.721Z,8.33
2023-04-16T03:13:34.544Z,8.38
2023-04-16T03:16:05.614Z,8.41
2023-04-16T03:18:36.308Z,8.41
2023-04-16T03:21:08.806Z,8.37
2023-04-16T03:23:39.460Z,8.37
2023-04-16T03:26:10.046Z,8.37
2023-04-16T03:28:40.685Z,8.40
2023-04-16T03:31:11.338Z,8.41
2023-04-16T03:33:42.014Z,8.40
2023-04-16T03:36:12.831Z,8.42
2023-04-16T03:38:43.521Z,8.43
2023-04-16T03:41:14.131Z,8.42
2023-04-16T03:43:44.817Z,8.39
2023-04-16T03:46:15.444Z,8.37
2023-04-16T03:48:46.117Z,8.38
2023-04-16T03:51:16.783Z,8.40
2023-04-16T03:53:47.470Z,8.43
2023-04-16T03:56:18.116Z,8.47
2023-04-16T03:58:48.774Z,8.49
2023-04-16T04:01:19.481Z,8.52
2023-04-16T04:03:50.459Z,8.56
2023-04-16T04:06:19.611Z,8.58
2023-04-16T04:08:50.251Z,8.61
2023-04-16T04:11:20.996Z,8.63
2023-04-16T04:13:51.657Z,8.66
2023-04-16T04:16:22.379Z,8.66
2023-04-16T04:18:53.176Z,8.67
2023-04-16T04:21:24.149Z,8.69
2023-04-16T04:23:56.146Z,8.73
2023-04-16T04:26:26.918Z,8.78
2023-04-16T04:28:57.623Z,8.82
2023-04-16T04:31:28.322Z,8.86
2023-04-16T04:33:58.986Z,8.90
2023-04-16T04:36:29.701Z,8.94
2023-04-16T04:39:00.435Z,8.97
2023-04-16T04:41:31.315Z,9.00
2023-04-16T04:44:00.440Z,9.01
2023-04-16T04:46:31.111Z,9.02
2023-04-16T04:49:01.790Z,9.03
2023-04-16T04:51:32.608Z,9.05
2023-04-16T04:54:03.267Z,9.08
2023-04-16T04:56:34.277Z,9.13
2023-04-16T04:59:05.852Z,9.16
2023-04-16T05:01:36.560Z,9.19
2023-04-16T05:04:07.386Z,9.24
2023-04-16T05:06:38.031Z,9.29
2023-04-16T05:09:08.933Z,9.35
2023-04-16T05:11:40.837Z,9.39
2023-04-16T05:14:11.521Z,9.43
2023-04-16T05:16:42.264Z,9.41
2023-04-16T05:19:12.984Z,9.38
2023-04-16T05:21:43.599Z,9.35
2023-04-16T05:24:15.047Z,9.33
2023-04-16T05:26:45.875Z,9.36
2023-04-16T05:29:17.034Z,9.35
2023-04-16T05:31:47.858Z,9.42
2023-04-16T05:34:18.481Z,9.55
2023-04-16T05:36:49.191Z,9.65
2023-04-16T05:39:19.908Z,9.76
2023-04-16T05:41:50.578Z,9.89
2023-04-16T05:44:21.301Z,9.98
2023-04-16T05:46:51.916Z,10.04
2023-04-16T05:49:22.612Z,10.07
2023-04-16T05:51:53.448Z,10.06
2023-04-16T05:54:24.099Z,10.14
2023-04-16T05:56:54.743Z,10.22
2023-04-16T05:59:25.442Z,10.26
2023-04-16T06:01:56.153Z,10.30
2023-04-16T06:04:26.855Z,10.34
2023-04-16T06:06:57.530Z,10.41
2023-04-16T06:09:28.218Z,10.41
2023-04-16T06:11:59.693Z,10.41
2023-04-16T06:14:30.385Z,10.52
2023-04-16T06:17:01.033Z,10.58
2023-04-16T06:19:31.868Z,10.66
2023-04-16T06:22:02.533Z,10.71
2023-04-16T06:24:33.360Z,10.78
2023-04-16T06:27:04.252Z,10.86
2023-04-16T06:29:40.696Z,10.96
2023-04-16T06:32:12.212Z,11.02
2023-04-16T06:34:42.970Z,11.03
2023-04-16T06:37:13.668Z,11.10
2023-04-16T06:39:44.340Z,11.13
2023-04-16T06:42:14.958Z,11.16
2023-04-16T06:44:46.574Z,11.21
2023-04-16T06:47:17.407Z,11.26
2023-04-16T06:49:48.168Z,11.32
2023-04-16T06:52:18.910Z,11.42
2023-04-16T06:54:49.667Z,11.54
2023-04-16T06:57:20.420Z,11.62
2023-04-16T06:59:51.108Z,11.70
2023-04-16T07:02:21.896Z,11.81
2023-04-16T07:04:52.820Z,11.90
2023-04-16T07:07:23.613Z,11.95
2023-04-16T07:09:54.513Z,12.01
2023-04-16T07:12:25.377Z,12.10
2023-04-16T07:14:56.117Z,12.18
2023-04-16T07:17:26.887Z,12.26
2023-04-16T07:19:57.650Z,12.34
2023-04-16T07:22:28.451Z,12.41
2023-04-16T07:24:59.123Z,12.46
2023-04-16T07:27:29.751Z,12.45
2023-04-16T07:30:00.463Z,12.44
2023-04-16T07:32:31.276Z,12.34
2023-04-16T07:35:00.495Z,12.29
2023-04-16T07:37:31.174Z,12.28
2023-04-16T07:40:01.862Z,12.27
2023-04-16T07:42:32.523Z,12.24
2023-04-16T07:45:03.324Z,12.26
2023-04-16T07:47:34.030Z,12.26
2023-04-16T07:50:05.594Z,12.30
2023-04-16T07:52:36.404Z,12.37
2023-04-16T07:55:14.855Z,12.50
2023-04-16T07:57:45.633Z,12.57
2023-04-16T08:00:16.867Z,12.62
2023-04-16T08:02:47.858Z,12.72
2023-04-16T08:05:18.890Z,12.88
2023-04-16T08:07:49.602Z,13.00
2023-04-16T08:10:22.791Z,13.05
2023-04-16T08:12:53.621Z,13.05
2023-04-16T08:15:24.433Z,13.14
2023-04-16T08:17:55.338Z,13.21
2023-04-16T08:20:24.776Z,13.31
2023-04-16T08:22:56.177Z,13.41
2023-04-16T08:25:26.861Z,13.53
2023-04-16T08:27:58.047Z,13.59
2023-04-16T08:30:28.821Z,13.69
2023-04-16T08:32:59.588Z,13.78
2023-04-16T08:35:30.247Z,13.84
2023-04-16T08:38:02.355Z,13.88
2023-04-16T08:40:38.028Z,13.94
2023-04-16T08:43:12.807Z,14.01
2023-04-16T08:45:47.344Z,14.07
2023-04-16T08:48:18.961Z,14.11
2023-04-16T08:50:52.322Z,14.23
2023-04-16T08:53:33.038Z,14.38
2023-04-16T08:56:05.791Z,14.52
2023-04-16T08:58:37.774Z,14.61
2023-04-16T09:01:10.881Z,14.80
2023-04-16T09:03:43.786Z,14.95
2023-04-16T09:06:15.441Z,15.05
2023-04-16T09:08:48.041Z,15.10
2023-04-16T09:11:19.810Z,15.19
2023-04-16T09:13:50.481Z,15.27
2023-04-16T09:16:21.995Z,15.33
2023-04-16T09:18:53.643Z,15.37
2023-04-16T09:21:25.004Z,15.36
2023-04-16T09:23:56.223Z,15.44
2023-04-16T09:26:27.876Z,15.49
2023-04-16T09:28:58.628Z,15.55
2023-04-16T09:31:29.407Z,15.63
2023-04-16T09:34:05.473Z,15.73
2023-04-16T09:36:36.812Z,15.84
2023-04-16T09:39:07.620Z,15.92
2023-04-16T09:41:36.796Z,16.00
2023-04-16T09:44:07.710Z,16.07
2023-04-16T09:46:43.167Z,16.12
2023-04-16T09:49:16.675Z,16.12
2023-04-16T09:51:48.497Z,16.02
2023-04-16T09:54:19.867Z,16.07
2023-04-16T09:56:50.507Z,16.15
2023-04-16T09:59:22.811Z,16.19
2023-04-16T10:02:14.734Z,16.22
2023-04-16T10:04:51.846Z,16.21
2023-04-16T10:07:23.359Z,16.24
2023-04-16T10:09:54.590Z,16.29
2023-04-16T10:12:25.264Z,16.34
2023-04-16T10:14:56.043Z,16.38
2023-04-16T10:17:25.248Z,16.42
2023-04-16T10:19:57.692Z,16.31
2023-04-16T10:22:28.696Z,16.22
2023-04-16T10:25:00.124Z,16.16
2023-04-16T10:27:31.250Z,16.19
2023-04-16T10:30:02.805Z,16.30
2023-04-16T10:32:33.988Z,16.40
2023-04-16T10:35:05.099Z,16.50
2023-04-16T10:37:37.403Z,16.62
2023-04-16T10:40:25.549Z,16.72
2023-04-16T10:43:00.149Z,16.88
2023-04-16T10:45:37.412Z,16.98
2023-04-16T10:48:09.059Z,17.05
2023-04-16T10:50:40.021Z,17.11
2023-04-16T10:53:24.541Z,17.11
2023-04-16T10:56:12.045Z,17.08
2023-04-16T10:58:43.188Z,17.05
2023-04-16T11:01:14.472Z,17.00
2023-04-16T11:03:46.823Z,17.03
2023-04-16T11:06:25.413Z,17.01
2023-04-16T11:08:55.994Z,16.95
2023-04-16T11:11:28.916Z,16.90
2023-04-16T11:13:59.829Z,16.86
2023-04-16T11:16:31.899Z,16.77
2023-04-16T11:19:02.609Z,16.63
2023-04-16T11:21:34.234Z,16.54
2023-04-16T11:24:05.189Z,16.53
2023-04-16T11:26:35.931Z,16.47
2023-04-16T11:29:15.006Z,16.36
2023-04-16T11:31:51.812Z,16.36
2023-04-16T11:34:22.754Z,16.32
2023-04-16T11:36:52.146Z,16.32
2023-04-16T11:39:22.854Z,16.28
2023-04-16T11:41:53.565Z,16.22
2023-04-16T11:44:25.721Z,16.15
2023-04-16T11:46:56.458Z,16.05
2023-04-16T11:49:30.908Z,16.01
2023-04-16T11:52:02.009Z,16.02
2023-04-16T11:54:32.682Z,16.07
2023-04-16T11:57:03.420Z,16.09
2023-04-16T11:59:32.485Z,16.14
2023-04-16T12:02:03.481Z,16.19
2023-04-16T12:04:35.035Z,16.25
2023-04-16T12:07:11.069Z,16.33
2023-04-16T12:09:42.781Z,16.34
2023-04-16T12:12:30.300Z,16.34
2023-04-16T12:15:01.515Z,16.37
2023-04-16T12:17:33.580Z,16.48
2023-04-16T12:20:09.422Z,16.59
2023-04-16T12:22:43.931Z,16.62
2023-04-16T12:25:15.984Z,16.65
2023-04-16T12:27:50.732Z,16.70
2023-04-16T12:30:25.109Z,16.78
2023-04-16T12:33:16.021Z,16.84
2023-04-16T12:35:45.299Z,16.89
2023-04-16T12:38:15.969Z,16.96
2023-04-16T12:40:47.068Z,17.00
2023-04-16T12:43:17.886Z,16.97
2023-04-16T12:45:48.624Z,16.96
2023-04-16T12:48:17.746Z,17.01
2023-04-16T12:50:48.738Z,17.05
2023-04-16T12:53:19.511Z,17.10
2023-04-16T12:55:48.563Z,17.10
2023-04-16T12:58:19.237Z,17.09
2023-04-16T13:00:49.940Z,17.09
2023-04-16T13:03:19.147Z,16.98
2023-04-16T13:05:50.040Z,16.92
2023-04-16T13:08:19.146Z,16.93
2023-04-16T13:10:49.917Z,16.86
2023-04-16T13:13:19.082Z,16.73
2023-04-16T13:15:49.773Z,16.74
2023-04-16T13:18:20.558Z,16.72
2023-04-16T13:20:51.239Z,16.70
2023-04-16T13:23:21.982Z,16.71
2023-04-16T13:25:52.815Z,16.72
2023-04-16T13:28:21.993Z,16.71
2023-04-16T13:30:52.834Z,16.65
2023-04-16T13:33:21.997Z,16.60
2023-04-16T13:35:52.680Z,16.59
2023-04-16T13:38:23.387Z,16.61
2023-04-16T13:40:54.203Z,16.66
2023-04-16T13:43:23.352Z,16.63
2023-04-16T13:45:54.122Z,16.63
2023-04-16T13:48:25.153Z,16.61
2023-04-16T13:50:55.910Z,16.64
2023-04-16T13:53:27.069Z,16.63
2023-04-16T13:55:57.761Z,16.63
2023-04-16T13:58:28.471Z,16.59
2023-04-16T14:00:57.638Z,16.59
2023-04-16T14:03:28.598Z,16.56
2023-04-16T14:05:59.330Z,16.56
2023-04-16T14:08:30.031Z,16.52
2023-04-16T14:11:00.826Z,16.39
2023-04-16T14:13:31.689Z,16.20
2023-04-16T14:16:02.366Z,16.01
2023-04-16T14:18:33.017Z,15.87
2023-04-16T14:21:03.775Z,15.73
2023-04-16T14:23:34.536Z,15.47
2023-04-16T14:26:05.516Z,15.22
2023-04-16T14:28:36.236Z,15.03
2023-04-16T14:31:06.905Z,14.80
2023-04-16T14:33:37.561Z,14.51
2023-04-16T14:36:10.135Z,14.35
2023-04-16T14:38:50.228Z,14.26
2023-04-16T14:41:20.958Z,14.17
2023-04-16T14:43:51.616Z,14.13
2023-04-16T14:46:22.253Z,14.07
2023-04-16T14:48:52.963Z,13.99
2023-04-16T14:51:24.031Z,13.91
2023-04-16T14:53:54.766Z,13.86
2023-04-16T14:56:33.886Z,13.81
2023-04-16T14:59:04.587Z,13.80
2023-04-16T15:01:35.809Z,13.80
2023-04-16T15:04:06.748Z,13.73
2023-04-16T15:06:36.139Z,13.68
2023-04-16T15:09:06.829Z,13.61
2023-04-16T15:11:37.454Z,13.53
2023-04-16T15:14:08.212Z,13.52
2023-04-16T15:16:37.407Z,13.50
2023-04-16T15:19:08.326Z,13.47
2023-04-16T15:21:37.446Z,13.47
2023-04-16T15:24:11.117Z,13.43
2023-04-16T15:26:41.929Z,13.37
2023-04-16T15:29:12.559Z,13.28
2023-04-16T15:31:43.778Z,13.19
2023-04-16T15:34:14.869Z,13.20
2023-04-16T15:36:45.602Z,13.17
2023-04-16T15:39:16.374Z,13.14
2023-04-16T15:42:00.077Z,13.07
2023-04-16T15:44:33.062Z,13.00
2023-04-16T15:47:04.058Z,13.00
2023-04-16T15:49:33.157Z,12.96
2023-04-16T15:52:04.194Z,12.93
2023-04-16T15:54:34.993Z,12.89
2023-04-16T15:57:05.699Z,12.84
2023-04-16T15:59:36.442Z,12.84
2023-04-16T16:02:07.591Z,12.81
2023-04-16T16:04:38.560Z,12.74
2023-04-16T16:07:07.884Z,12.71
2023-04-16T16:09:38.702Z,12.72
2023-04-16T16:12:07.883Z,12.68
2023-04-16T16:14:38.708Z,12.67
2023-04-16T16:17:09.345Z,12.67
2023-04-16T16:19:39.978Z,12.65
2023-04-16T16:22:10.636Z,12.60
2023-04-16T16:24:41.319Z,12.54
2023-04-16T16:27:11.964Z,12.46
2023-04-16T16:29:42.899Z,12.37
2023-04-16T16:32:12.201Z,12.30
2023-04-16T16:34:42.810Z,12.24
2023-04-16T16:37:13.432Z,12.18
2023-04-16T16:39:44.148Z,12.12
2023-04-16T16:42:14.804Z,12.05
2023-04-16T16:44:45.525Z,12.04
2023-04-16T16:47:16.256Z,12.02
2023-04-16T16:49:47.760Z,12.03
2023-04-16T16:52:18.527Z,12.06
2023-04-16T16:54:49.230Z,12.10
2023-04-16T16:57:21.093Z,12.08
2023-04-16T16:59:52.027Z,12.06
2023-04-16T17:02:21.304Z,12.04
2023-04-16T17:04:52.001Z,12.05
2023-04-16T17:07:22.683Z,12.03
2023-04-16T17:09:53.406Z,11.93
2023-04-16T17:12:24.057Z,11.83
2023-04-16T17:14:54.675Z,11.73
2023-04-16T17:17:26.651Z,11.64
2023-04-16T17:19:57.512Z,11.55
2023-04-16T17:22:28.269Z,11.44
2023-04-16T17:24:58.932Z,11.34
2023-04-16T17:27:29.913Z,11.25
2023-04-16T17:29:59.035Z,11.19
2023-04-16T17:32:30.527Z,11.14
2023-04-16T17:35:01.929Z,11.16
2023-04-16T17:37:33.026Z,11.18
2023-04-16T17:40:02.254Z,11.14
2023-04-16T17:42:32.966Z,11.08
2023-04-16T17:45:04.158Z,11.09
2023-04-16T17:47:36.124Z,11.08
2023-04-16T17:50:08.944Z,11.04
2023-04-16T17:52:39.758Z,11.01
2023-04-16T17:55:19.741Z,10.95
2023-04-16T17:57:50.386Z,10.88
2023-04-16T18:00:21.919Z,10.79
2023-04-16T18:02:52.752Z,10.74
2023-04-16T18:05:22.220Z,10.72
2023-04-16T18:07:52.952Z,10.70
2023-04-16T18:10:23.952Z,10.66
2023-04-16T18:12:54.625Z,10.62
2023-04-16T18:15:25.292Z,10.59
2023-04-16T18:17:56.074Z,10.57
2023-04-16T18:20:26.786Z,10.56
2023-04-16T18:22:57.475Z,10.53
2023-04-16T18:25:34.336Z,10.47
2023-04-16T18:28:05.896Z,10.44
2023-04-16T18:30:40.242Z,10.44
2023-04-16T18:33:38.883Z,10.40
2023-04-16T18:36:02.855Z,10.38
2023-04-16T18:38:34.030Z,10.38
2023-04-16T18:41:04.762Z,10.39
2023-04-16T18:43:35.372Z,10.42
2023-04-16T18:46:06.138Z,10.41
2023-04-16T18:48:37.000Z,10.43
2023-04-16T18:51:07.972Z,10.43
2023-04-16T18:53:37.156Z,10.41
2023-04-16T18:56:10.106Z,10.40
2023-04-16T18:58:40.935Z,10.40
2023-04-16T19:01:11.814Z,10.39
2023-04-16T19:03:42.582Z,10.36
2023-04-16T19:06:13.407Z,10.36
2023-04-16T19:08:44.172Z,10.38
2023-04-16T19:11:14.965Z,10.37
2023-04-16T19:13:45.632Z,10.36
2023-04-16T19:16:16.484Z,10.32
2023-04-16T19:18:47.298Z,10.31
2023-04-16T19:21:18.159Z,10.28
2023-04-16T19:23:48.826Z,10.28
2023-04-16T19:26:19.537Z,10.25
2023-04-16T19:28:50.222Z,10.21
2023-04-16T19:31:21.284Z,10.20
2023-04-16T19:33:52.000Z,10.21
2023-04-16T19:36:22.738Z,10.21
2023-04-16T19:38:53.390Z,10.20
2023-04-16T19:41:24.382Z,10.22
2023-04-16T19:43:54.019Z,10.24
2023-04-16T19:46:24.715Z,10.25
2023-04-16T19:48:55.452Z,10.24
2023-04-16T19:51:24.809Z,10.24
2023-04-16T19:53:55.756Z,10.24
2023-04-16T19:56:26.306Z,10.22
2023-04-16T19:58:56.976Z,10.17
2023-04-16T20:01:27.758Z,10.14
2023-04-16T20:03:58.525Z,10.10
2023-04-16T20:06:29.182Z,10.09
2023-04-16T20:08:59.878Z,10.07
2023-04-16T20:11:30.818Z,10.07
2023-04-16T20:14:01.505Z,10.05
2023-04-16T20:16:32.292Z,10.04
2023-04-16T20:19:05.120Z,10.01
2023-04-16T20:21:37.204Z,10.00
2023-04-16T20:24:10.266Z,9.98
2023-04-16T20:26:41.009Z,9.97
2023-04-16T20:29:11.800Z,9.99
2023-04-16T20:31:41.019Z,9.93
2023-04-16T20:34:12.123Z,9.88
2023-04-16T20:36:42.758Z,9.85
2023-04-16T20:39:13.612Z,9.85
2023-04-16T20:41:44.498Z,9.84
2023-04-16T20:44:15.126Z,9.84
2023-04-16T20:46:45.874Z,9.87
2023-04-16T20:49:16.480Z,9.91
2023-04-16T20:51:47.133Z,9.91
2023-04-16T20:54:17.756Z,9.93
2023-04-16T20:56:48.384Z,9.99
2023-04-16T20:59:19.145Z,10.00
2023-04-16T21:01:50.106Z,10.02
2023-04-16T21:04:20.998Z,10.06
2023-04-16T21:06:51.711Z,10.07
2023-04-16T21:09:22.395Z,10.05
2023-04-16T21:11:53.174Z,10.04
2023-04-16T21:14:23.829Z,10.01
2023-04-16T21:16:54.484Z,9.99
2023-04-16T21:19:25.177Z,9.96
2023-04-16T21:21:55.855Z,9.93
2023-04-16T21:24:26.489Z,9.94
2023-04-16T21:26:57.152Z,9.92
2023-04-16T21:29:27.840Z,9.93
2023-04-16T21:31:58.620Z,9.93
2023-04-16T21:34:29.262Z,9.94
2023-04-16T21:36:59.903Z,9.95
2023-04-16T21:39:31.000Z,9.92
2023-04-16T21:42:01.739Z,9.96
2023-04-16T21:44:32.347Z,9.99
2023-04-16T21:47:03.029Z,9.99
2023-04-16T21:49:33.678Z,10.01
2023-04-16T21:52:04.563Z,10.02
2023-04-16T21:54:35.222Z,10.01
2023-04-16T21:57:05.931Z,10.02
2023-04-16T21:59:36.511Z,10.01
2023-04-16T22:02:07.704Z,9.98
2023-04-16T22:04:39.116Z,9.96
2023-04-16T22:07:10.206Z,9.93
2023-04-16T22:09:39.292Z,9.88
2023-04-16T22:12:11.613Z,9.85
2023-04-16T22:14:52.309Z,9.84
2023-04-16T22:17:32.700Z,9.87
2023-04-16T22:20:03.525Z,9.84
2023-04-16T22:22:34.344Z,9.79
2023-04-16T22:25:05.908Z,9.73
2023-04-16T22:27:36.902Z,9.75
2023-04-16T22:30:07.092Z,9.78
2023-04-16T22:32:37.867Z,9.75
2023-04-16T22:35:11.114Z,9.70
2023-04-16T22:37:41.776Z,9.67
2023-04-16T22:40:14.472Z,9.63
2023-04-16T22:42:45.190Z,9.61
2023-04-16T22:45:15.884Z,9.56
2023-04-16T22:47:46.620Z,9.54
2023-04-16T22:50:17.630Z,9.54
2023-04-16T22:52:46.714Z,9.52
2023-04-16T22:55:17.359Z,9.49
2023-04-16T22:57:48.028Z,9.49
2023-04-16T23:00:20.680Z,9.52
2023-04-16T23:02:51.507Z,9.56
2023-04-16T23:05:22.385Z,9.57
2023-04-16T23:07:53.117Z,9.56
2023-04-16T23:10:23.774Z,9.56
2023-04-16T23:12:54.529Z,9.56
2023-04-16T23:15:25.158Z,9.54
2023-04-16T23:17:55.836Z,9.48
2023-04-16T23:20:26.553Z,9.47
2023-04-16T23:22:57.244Z,9.47
2023-04-16T23:25:27.895Z,9.50
2023-04-16T23:27:58.565Z,9.50
2023-04-16T23:30:29.228Z,9.49
2023-04-16T23:32:59.939Z,9.46
2023-04-16T23:35:30.600Z,9.43
2023-04-16T23:38:01.289Z,9.43
2023-04-16T23:40:31.930Z,9.41
2023-04-16T23:43:02.570Z,9.40
2023-04-16T23:45:33.238Z,9.41
2023-04-16T23:48:04.079Z,9.37
2023-04-16T23:50:34.710Z,9.35
2023-04-16T23:53:05.502Z,9.40
2023-04-16T23:55:36.143Z,9.43
2023-04-16T23:58:06.863Z,9.40
